Buoy 16555

sailwx.info

Track history (hours):
 
Tides and Currents Weather Stations Pressure Air Temp Water Temp Dewpoint Dewpoint Depression Visibility Wind Speed Wind Dir Waves Ship Positions

Drifting buoy 16555

Last reported at 2016-May-28 17:00 UTC. Time now 2016-May-29 00:05 UTC.
Position S 37°26' E 082°17'.

Barometer 1009.2 mb
Water temperature 15.0 ° C

Date/timePositionNaut miles runAvg speedWind from/ knotsBaromVisibWave heightAir tempDewpointWater temp
2016-May-28 17:00S 37°26' E 082°17'3 0.6 1009.2 15.0
2016-May-28 12:00S 37°29' E 082°16'1 1.5 1006.4 15.1
2016-May-28 11:00S 37°29' E 082°14'3 0.3 1006.2 15.1
2016-May-28 02:00S 37°27' E 082°12'0 0.0 1012.3 15.3
2016-May-27 19:00S 37°27' E 082°12'0 0.2 1015.9 15.3
2016-May-27 17:00S 37°27' E 082°12'1 0.1 1016.8 15.3
2016-May-27 01:00S 37°26' E 082°11'2 0.6 1019.8 15.3
2016-May-26 22:00S 37°27' E 082°09'1 0.2 1019.1 15.3
2016-May-26 16:00S 37°26' E 082°08'1 0.2 1017.3 15.3
2016-May-26 13:00S 37°26' E 082°08'1 1.0 1014.3 15.2
2016-May-26 12:00S 37°26' E 082°09'4 3.9 1013.0 15.2
2016-May-26 11:00S 37°29' E 082°12'3 0.3 1011.5 15.2
2016-May-26 01:00S 37°32' E 082°11'2 0.7 1000.0 15.4
2016-May-25 22:00S 37°34' E 082°10'2 0.3 999.0 15.4
2016-May-25 16:00S 37°35' E 082°08'1 0.3 1006.4 15.1
2016-May-25 14:00S 37°34' E 082°07'3 0.9 1008.9 15.1
2016-May-25 11:00S 37°36' E 082°05'1 0.3 1012.0 15.2
2016-May-25 09:00S 37°36' E 082°04'3 0.5 1013.5 15.2
2016-May-25 02:00S 37°39' E 082°03'2 0.3 1018.6 15.1
2016-May-24 21:00S 37°41' E 082°03'2 0.4 1020.0 14.9
2016-May-24 16:00S 37°43' E 082°04'1 0.3 1020.6 14.9
2016-May-24 13:00S 37°44' E 082°03'1 0.3 1020.4 15.0
2016-May-24 11:00S 37°44' E 082°04'0 0.3 1019.1 15.0
2016-May-24 10:00S 37°45' E 082°04'1 0.3 1018.9 15.1
2016-May-24 08:00S 37°45' E 082°04'2 0.7 1018.8 15.1
2016-May-24 05:00S 37°47' E 082°05'2 0.6 1019.1 15.1
2016-May-24 02:00S 37°49' E 082°05'0 0.4 1018.4 15.1
2016-May-24 01:00S 37°49' E 082°05'1 0.7 1018.0 15.1
2016-May-24 00:00S 37°50' E 082°05'1 0.8 1017.9 15.1
2016-May-23 23:00S 37°49' E 082°05'2 0.4 1017.7 15.1
2016-May-23 17:00S 37°52' E 082°06'0 0.1 1018.6 15.2
2016-May-23 14:00S 37°52' E 082°06'1 0.3 1018.7 15.1
2016-May-23 10:00S 37°53' E 082°07'1 0.4 1017.1 15.0
2016-May-23 08:00S 37°54' E 082°07'3 0.6 1016.9 14.9
2016-May-23 03:00S 37°56' E 082°06'2 0.5 1016.2 14.9
2016-May-23 00:00S 37°58' E 082°05'0 0.2 1013.7 15.0
2016-May-22 23:00S 37°57' E 082°05'1 0.3 1013.0 15.0
2016-May-22 18:00S 37°59' E 082°06'3 0.4 1009.6 15.0
2016-May-22 11:00S 38°02' E 082°06'1 0.6 1002.5 15.2
2016-May-22 10:00S 38°02' E 082°05'1 0.2 1002.4 15.2
2016-May-22 05:00S 38°03' E 082°04'1 0.2 1006.7 15.0
2016-May-22 00:00S 38°03' E 082°03'2 0.2 1009.2 15.0
2016-May-21 17:00S 38°04' E 082°05'1 0.3 1015.2 14.9
2016-May-21 13:00S 38°05' E 082°04'1 0.2 1019.4 14.9
2016-May-21 10:00S 38°06' E 082°04'1 0.1 1019.8 14.9
2016-May-21 02:00S 38°07' E 082°05'1 0.6 1025.3 14.8
2016-May-21 01:00S 38°07' E 082°04'3 0.4 1025.3 14.9
2016-May-20 18:00S 38°10' E 082°05'2 0.3 1027.4 14.9
2016-May-20 12:00S 38°11' E 082°04'0 0.0 1026.6 14.9
2016-May-20 11:00S 38°11' E 082°04'2 0.3 1026.1 14.9
2016-May-20 04:00S 38°13' E 082°05'1 1.4 1024.8 14.9
2016-May-20 03:00S 38°15' E 082°05'11 0.5 1024.0 14.9
2016-May-19 02:00S 38°26' E 082°06'0 0.0 1006.9 15.1
2016-May-19 01:00S 38°26' E 082°06'1 0.4 1006.2 15.1
2016-May-18 22:00S 38°27' E 082°06'2 0.7 1005.0 15.1
2016-May-18 19:00S 38°29' E 082°06'1 0.6 1005.1 15.2
2016-May-18 17:00S 38°30' E 082°05'   1005.3 15.3
Track history (hours):
 
Tides and Currents Weather Stations Pressure Air Temp Water Temp Dewpoint Dewpoint Depression Visibility Wind Speed Wind Dir Waves Ship Positions

Drifting buoy 16555

Last reported at 2016-May-28 17:00 UTC. Time now 2016-May-29 00:05 UTC.
Position S 37°26' E 082°17'.

Barometer 1009.2 mb
Water temperature 15.0 ° C

Date/timePositionNaut miles runAvg speedWind from/ knotsBaromVisibWave heightAir tempDewpointWater temp
2016-May-28 17:00S 37°26' E 082°17'3 0.6 1009.2 15.0
2016-May-28 12:00S 37°29' E 082°16'1 1.5 1006.4 15.1
2016-May-28 11:00S 37°29' E 082°14'3 0.3 1006.2 15.1
2016-May-28 02:00S 37°27' E 082°12'0 0.0 1012.3 15.3
2016-May-27 19:00S 37°27' E 082°12'0 0.2 1015.9 15.3
2016-May-27 17:00S 37°27' E 082°12'1 0.1 1016.8 15.3
2016-May-27 01:00S 37°26' E 082°11'2 0.6 1019.8 15.3
2016-May-26 22:00S 37°27' E 082°09'1 0.2 1019.1 15.3
2016-May-26 16:00S 37°26' E 082°08'1 0.2 1017.3 15.3
2016-May-26 13:00S 37°26' E 082°08'1 1.0 1014.3 15.2
2016-May-26 12:00S 37°26' E 082°09'4 3.9 1013.0 15.2
2016-May-26 11:00S 37°29' E 082°12'3 0.3 1011.5 15.2
2016-May-26 01:00S 37°32' E 082°11'2 0.7 1000.0 15.4
2016-May-25 22:00S 37°34' E 082°10'2 0.3 999.0 15.4
2016-May-25 16:00S 37°35' E 082°08'1 0.3 1006.4 15.1
2016-May-25 14:00S 37°34' E 082°07'3 0.9 1008.9 15.1
2016-May-25 11:00S 37°36' E 082°05'1 0.3 1012.0 15.2
2016-May-25 09:00S 37°36' E 082°04'3 0.5 1013.5 15.2
2016-May-25 02:00S 37°39' E 082°03'2 0.3 1018.6 15.1
2016-May-24 21:00S 37°41' E 082°03'2 0.4 1020.0 14.9
2016-May-24 16:00S 37°43' E 082°04'1 0.3 1020.6 14.9
2016-May-24 13:00S 37°44' E 082°03'1 0.3 1020.4 15.0
2016-May-24 11:00S 37°44' E 082°04'0 0.3 1019.1 15.0
2016-May-24 10:00S 37°45' E 082°04'1 0.3 1018.9 15.1
2016-May-24 08:00S 37°45' E 082°04'2 0.7 1018.8 15.1
2016-May-24 05:00S 37°47' E 082°05'2 0.6 1019.1 15.1
2016-May-24 02:00S 37°49' E 082°05'0 0.4 1018.4 15.1
2016-May-24 01:00S 37°49' E 082°05'1 0.7 1018.0 15.1
2016-May-24 00:00S 37°50' E 082°05'1 0.8 1017.9 15.1
2016-May-23 23:00S 37°49' E 082°05'2 0.4 1017.7 15.1
2016-May-23 17:00S 37°52' E 082°06'0 0.1 1018.6 15.2
2016-May-23 14:00S 37°52' E 082°06'1 0.3 1018.7 15.1
2016-May-23 10:00S 37°53' E 082°07'1 0.4 1017.1 15.0
2016-May-23 08:00S 37°54' E 082°07'3 0.6 1016.9 14.9
2016-May-23 03:00S 37°56' E 082°06'2 0.5 1016.2 14.9
2016-May-23 00:00S 37°58' E 082°05'0 0.2 1013.7 15.0
2016-May-22 23:00S 37°57' E 082°05'1 0.3 1013.0 15.0
2016-May-22 18:00S 37°59' E 082°06'3 0.4 1009.6 15.0
2016-May-22 11:00S 38°02' E 082°06'1 0.6 1002.5 15.2
2016-May-22 10:00S 38°02' E 082°05'1 0.2 1002.4 15.2
2016-May-22 05:00S 38°03' E 082°04'1 0.2 1006.7 15.0
2016-May-22 00:00S 38°03' E 082°03'2 0.2 1009.2 15.0
2016-May-21 17:00S 38°04' E 082°05'1 0.3 1015.2 14.9
2016-May-21 13:00S 38°05' E 082°04'1 0.2 1019.4 14.9
2016-May-21 10:00S 38°06' E 082°04'1 0.1 1019.8 14.9
2016-May-21 02:00S 38°07' E 082°05'1 0.6 1025.3 14.8
2016-May-21 01:00S 38°07' E 082°04'3 0.4 1025.3 14.9
2016-May-20 18:00S 38°10' E 082°05'2 0.3 1027.4 14.9
2016-May-20 12:00S 38°11' E 082°04'0 0.0 1026.6 14.9
2016-May-20 11:00S 38°11' E 082°04'2 0.3 1026.1 14.9
2016-May-20 04:00S 38°13' E 082°05'1 1.4 1024.8 14.9
2016-May-20 03:00S 38°15' E 082°05'11 0.5 1024.0 14.9
2016-May-19 02:00S 38°26' E 082°06'0 0.0 1006.9 15.1
2016-May-19 01:00S 38°26' E 082°06'1 0.4 1006.2 15.1
2016-May-18 22:00S 38°27' E 082°06'2 0.7 1005.0 15.1
2016-May-18 19:00S 38°29' E 082°06'1 0.6 1005.1 15.2
2016-May-18 17:00S 38°30' E 082°05'   1005.3 15.3

Dump ship's entire track history